Time;durP1;ratioP1;P1;durP2;ratioP2;P2;SDS_P1;SDS_P2;PMS_P1;PMS_P2;Temp;Humidity;BMP_temperature;BMP_pressure;BME280_temperature;BME280_humidity;BME280_pressure;Samples;Min_cycle;Max_cycle;Signal;HPM_P1;HPM_P2
2022/11/26 00:01:42;;;;;;;14.00;5.43;;;7.30;85.00;;;;;;5011909;28;20085;-70
2022/11/26 00:04:09;;;;;;;13.18;5.55;;;7.20;85.00;;;;;;5011587;28;20057;-70
2022/11/26 00:06:39;;;;;;;15.57;5.83;;;7.20;85.20;;;;;;5013298;28;20499;-70
2022/11/26 00:09:13;;;;;;;13.82;5.70;;;7.20;85.30;;;;;;5012902;28;20319;-70
2022/11/26 00:11:41;;;;;;;12.65;5.35;;;7.20;85.30;;;;;;5026811;28;20828;-70
2022/11/26 00:14:14;;;;;;;16.55;5.97;;;7.20;85.30;;;;;;5011391;28;20046;-70
2022/11/26 00:16:41;;;;;;;14.15;5.38;;;7.20;85.30;;;;;;5013052;28;20059;-70
2022/11/26 00:19:09;;;;;;;14.67;6.20;;;7.20;85.40;;;;;;5011343;28;20085;-70
2022/11/26 00:21:39;;;;;;;11.85;5.55;;;7.20;85.40;;;;;;5012753;28;20266;-70
2022/11/26 00:24:26;;;;;;;15.93;5.70;;;7.20;85.50;;;;;;5027934;28;20058;-70
2022/11/26 00:26:55;;;;;;;12.88;5.03;;;7.20;85.50;;;;;;5010377;28;20053;-70
2022/11/26 00:29:24;;;;;;;16.10;5.70;;;7.10;85.50;;;;;;5027510;28;20081;-70
2022/11/26 00:31:51;;;;;;;13.03;5.23;;;7.10;85.60;;;;;;5013087;28;20061;-70
2022/11/26 00:34:18;;;;;;;17.92;5.20;;;7.10;85.60;;;;;;5012636;28;20755;-70
2022/11/26 00:36:45;;;;;;;12.65;5.63;;;7.00;85.70;;;;;;5012450;28;20057;-70
2022/11/26 00:39:18;;;;;;;16.73;5.75;;;7.00;85.70;;;;;;5026835;28;20054;-70
2022/11/26 00:41:49;;;;;;;15.90;5.13;;;7.00;85.70;;;;;;5012673;28;20144;-70
2022/11/26 00:44:19;;;;;;;18.17;5.93;;;7.00;85.60;;;;;;5010187;28;21112;-70
2022/11/26 00:46:49;;;;;;;12.35;5.38;;;7.00;85.60;;;;;;4994799;28;20254;-70
2022/11/26 00:49:17;;;;;;;16.20;5.55;;;7.00;85.70;;;;;;5012142;28;20488;-70
2022/11/26 00:51:46;;;;;;;10.05;4.90;;;7.00;85.60;;;;;;5010954;28;20504;-70
2022/11/26 00:54:16;;;;;;;16.25;6.00;;;7.00;85.60;;;;;;5012494;28;20137;-70
2022/11/26 00:56:44;;;;;;;13.70;5.93;;;6.90;85.60;;;;;;5012236;28;20074;-70
2022/11/26 00:59:13;;;;;;;14.93;5.75;;;7.00;85.70;;;;;;5010656;28;20389;-70
2022/11/26 01:01:40;;;;;;;13.00;5.28;;;7.00;85.60;;;;;;5010730;28;20058;-70
2022/11/26 01:04:09;;;;;;;14.95;5.40;;;6.90;85.70;;;;;;4994678;28;20165;-70
2022/11/26 01:06:39;;;;;;;14.25;5.72;;;6.90;85.70;;;;;;5011846;28;20121;-70
2022/11/26 01:09:12;;;;;;;14.27;5.47;;;6.90;85.70;;;;;;5010646;28;20056;-70
2022/11/26 01:11:43;;;;;;;13.95;5.70;;;6.90;85.80;;;;;;5012133;28;20655;-70
2022/11/26 01:14:15;;;;;;;16.60;5.95;;;6.90;85.80;;;;;;5011007;28;20132;-70
2022/11/26 01:16:44;;;;;;;15.68;5.90;;;6.90;85.80;;;;;;5010567;28;20049;-70
2022/11/26 01:19:14;;;;;;;16.38;6.03;;;6.80;85.80;;;;;;5010547;28;20050;-70
2022/11/26 01:21:41;;;;;;;15.70;5.60;;;6.80;85.80;;;;;;4994408;28;20133;-70
2022/11/26 01:24:09;;;;;;;14.20;5.72;;;6.80;85.80;;;;;;4994619;28;20362;-70
2022/11/26 01:26:39;;;;;;;17.10;5.93;;;6.80;85.80;;;;;;5026610;28;20051;-70
2022/11/26 01:29:06;;;;;;;15.32;6.05;;;6.80;85.80;;;;;;5011693;28;20563;-70
2022/11/26 01:31:34;;;;;;;16.35;5.97;;;6.80;85.90;;;;;;5026718;28;20055;-70
2022/11/26 01:34:01;;;;;;;15.60;5.70;;;6.70;85.90;;;;;;5025750;28;20057;-70
2022/11/26 01:36:31;;;;;;;13.85;6.30;;;6.70;85.90;;;;;;5011430;28;20349;-70
2022/11/26 01:39:01;;;;;;;17.02;6.00;;;6.70;85.90;;;;;;5048751;22;20061;-72
2022/11/26 01:41:44;;;;;;;14.63;6.05;;;6.70;85.90;;;;;;5029264;28;20137;-70
2022/11/26 01:44:17;;;;;;;15.25;6.13;;;6.70;85.90;;;;;;5029746;28;20065;-70
2022/11/26 01:46:45;;;;;;;14.67;6.20;;;6.70;86.00;;;;;;5030022;28;20046;-70
2022/11/26 01:49:18;;;;;;;14.40;6.32;;;6.70;86.00;;;;;;5030739;28;20360;-70
2022/11/26 01:51:49;;;;;;;15.20;6.20;;;6.70;86.10;;;;;;5028286;28;20734;-70
2022/11/26 01:54:17;;;;;;;13.48;5.63;;;6.70;86.10;;;;;;5031134;28;20073;-70
2022/11/26 01:56:47;;;;;;;14.57;5.40;;;6.70;86.10;;;;;;5029674;28;20050;-70
2022/11/26 01:59:19;;;;;;;14.93;6.00;;;6.60;86.10;;;;;;5030474;28;20046;-70
2022/11/26 02:01:48;;;;;;;18.88;5.88;;;6.60;86.10;;;;;;5031432;28;20249;-70
2022/11/26 02:04:18;;;;;;;14.07;5.95;;;6.60;86.10;;;;;;5030966;28;20090;-70
2022/11/26 02:06:49;;;;;;;13.93;5.65;;;6.60;86.10;;;;;;5031001;28;20062;-70
2022/11/26 02:09:18;;;;;;;13.25;5.45;;;6.60;86.20;;;;;;5029787;28;20062;-70
2022/11/26 02:11:45;;;;;;;14.30;6.20;;;6.60;86.10;;;;;;5029796;28;20050;-70
2022/11/26 02:14:16;;;;;;;18.88;5.68;;;6.60;86.20;;;;;;5029791;28;20269;-70
2022/11/26 02:16:57;;;;;;;16.58;5.88;;;6.50;86.20;;;;;;5030815;28;20050;-70
2022/11/26 02:20:07;;;;;;;13.98;5.10;;;6.50;86.20;;;;;;5030607;28;20046;-70
2022/11/26 02:23:03;;;;;;;16.05;5.05;;;6.50;86.20;;;;;;5029452;28;20050;-70
2022/11/26 02:25:47;;;;;;;14.30;5.20;;;6.50;86.10;;;;;;5028411;28;20054;-70
2022/11/26 02:28:26;;;;;;;14.13;5.30;;;6.50;86.10;;;;;;5028622;28;20271;-70
2022/11/26 02:30:59;;;;;;;15.32;5.22;;;6.50;86.20;;;;;;5012466;28;20054;-70
2022/11/26 02:33:30;;;;;;;14.02;4.97;;;6.50;86.20;;;;;;5029187;28;20058;-70
2022/11/26 02:36:04;;;;;;;14.63;5.10;;;6.40;86.10;;;;;;5027422;28;20512;-70
2022/11/26 02:38:33;;;;;;;10.50;4.90;;;6.40;86.10;;;;;;5027384;28;20240;-70
2022/11/26 02:41:00;;;;;;;13.50;5.28;;;6.40;86.10;;;;;;5027450;28;20311;-70
2022/11/26 02:43:28;;;;;;;13.40;4.85;;;6.40;86.20;;;;;;5027529;28;20054;-70
2022/11/26 02:46:01;;;;;;;14.40;5.40;;;6.30;86.10;;;;;;5028866;28;20197;-70
2022/11/26 02:48:32;;;;;;;13.82;4.70;;;6.30;86.20;;;;;;5027290;28;20138;-72
2022/11/26 02:51:04;;;;;;;11.33;4.27;;;6.30;86.20;;;;;;5012152;28;20050;-72
2022/11/26 02:53:33;;;;;;;11.63;4.45;;;6.30;86.30;;;;;;5032097;28;20336;-72
2022/11/26 02:56:05;;;;;;;9.52;4.63;;;6.30;86.20;;;;;;5029123;28;20575;-72
2022/11/26 02:58:33;;;;;;;11.13;4.70;;;6.30;86.20;;;;;;5030099;28;20136;-72
2022/11/26 03:01:08;;;;;;;7.18;3.67;;;6.20;86.20;;;;;;5028721;28;20058;-72
2022/11/26 03:03:40;;;;;;;8.13;3.20;;;6.20;86.20;;;;;;5029480;28;20061;-72
2022/11/26 03:06:10;;;;;;;9.00;3.65;;;6.20;86.30;;;;;;5029330;28;20341;-72
2022/11/26 03:08:37;;;;;;;8.63;3.60;;;6.20;86.20;;;;;;5028916;28;20574;-72
2022/11/26 03:11:05;;;;;;;10.02;4.03;;;6.20;86.10;;;;;;5029704;28;20064;-72
2022/11/26 03:13:32;;;;;;;7.30;3.28;;;6.20;86.00;;;;;;5030410;28;20088;-72
2022/11/26 03:15:59;;;;;;;6.70;3.40;;;6.20;85.90;;;;;;5028816;28;20085;-72
2022/11/26 03:18:28;;;;;;;6.82;2.85;;;6.20;85.80;;;;;;5027497;28;21174;-72
2022/11/26 03:20:55;;;;;;;8.63;3.80;;;6.20;85.70;;;;;;5028436;28;20056;-72
2022/11/26 03:23:22;;;;;;;7.35;3.53;;;6.20;85.50;;;;;;5029747;28;20515;-73
2022/11/26 03:25:49;;;;;;;6.63;3.47;;;6.20;85.40;;;;;;5029735;28;20182;-72
2022/11/26 03:28:16;;;;;;;8.47;3.50;;;6.20;85.20;;;;;;5029645;28;20056;-72
2022/11/26 03:30:43;;;;;;;10.13;4.18;;;6.20;85.10;;;;;;5028393;28;20775;-72
2022/11/26 03:33:10;;;;;;;10.40;4.50;;;6.10;85.00;;;;;;5027959;28;20524;-72
2022/11/26 03:35:38;;;;;;;11.13;4.10;;;6.10;84.90;;;;;;5027999;28;20058;-72
2022/11/26 03:38:05;;;;;;;9.95;4.43;;;6.10;84.90;;;;;;5029563;28;20129;-72
2022/11/26 03:40:32;;;;;;;13.17;5.07;;;6.00;84.90;;;;;;5028148;28;20045;-72
2022/11/26 03:42:59;;;;;;;12.98;4.30;;;6.00;85.00;;;;;;5029533;28;21200;-72
2022/11/26 03:45:26;;;;;;;12.50;4.80;;;6.00;85.10;;;;;;5030178;28;20058;-72
2022/11/26 03:47:53;;;;;;;11.32;4.25;;;5.90;85.10;;;;;;5028711;28;20976;-72
2022/11/26 03:50:21;;;;;;;12.25;4.47;;;5.90;85.10;;;;;;5026993;28;20046;-72
2022/11/26 03:52:49;;;;;;;14.67;4.93;;;5.90;85.20;;;;;;5029422;28;20050;-72
2022/11/26 03:55:17;;;;;;;11.50;4.75;;;5.90;85.20;;;;;;5028544;28;20311;-72
2022/11/26 03:57:44;;;;;;;10.40;5.25;;;5.90;85.20;;;;;;5029574;28;20116;-73
2022/11/26 04:00:13;;;;;;;11.80;5.07;;;5.90;85.20;;;;;;5029115;28;20050;-72
2022/11/26 04:02:40;;;;;;;12.90;4.80;;;5.90;85.30;;;;;;5029853;28;20054;-72
2022/11/26 04:05:08;;;;;;;12.00;5.10;;;5.90;85.30;;;;;;5029489;28;20153;-73
2022/11/26 04:07:35;;;;;;;10.88;4.47;;;5.80;85.30;;;;;;5028301;28;20356;-72
2022/11/26 04:10:04;;;;;;;10.63;4.38;;;5.80;85.40;;;;;;5029170;28;20136;-72
2022/11/26 04:12:31;;;;;;;10.45;4.80;;;5.80;85.40;;;;;;5029530;28;20169;-72
2022/11/26 04:14:58;;;;;;;12.32;5.10;;;5.80;85.50;;;;;;5030385;28;20175;-72
2022/11/26 04:17:26;;;;;;;9.93;4.70;;;5.80;85.50;;;;;;5031055;28;20468;-72
2022/11/26 04:19:53;;;;;;;13.93;5.80;;;5.80;85.50;;;;;;5032636;28;20285;-72
2022/11/26 04:22:20;;;;;;;12.10;5.47;;;5.80;85.60;;;;;;5032640;28;21060;-72
2022/11/26 04:24:47;;;;;;;12.20;5.22;;;5.80;85.70;;;;;;5031179;28;20049;-72
2022/11/26 04:27:15;;;;;;;9.70;4.68;;;5.80;85.60;;;;;;5031559;28;20056;-72
2022/11/26 04:29:42;;;;;;;11.10;5.00;;;5.80;85.70;;;;;;5011282;28;20053;-71
2022/11/26 04:32:09;;;;;;;12.00;4.97;;;5.70;85.60;;;;;;5013012;28;20254;-71
2022/11/26 04:34:36;;;;;;;11.75;5.35;;;5.70;85.70;;;;;;5033741;28;20488;-71
2022/11/26 04:37:03;;;;;;;14.10;5.07;;;5.70;85.70;;;;;;5050815;28;20046;-71
2022/11/26 04:39:30;;;;;;;11.90;5.32;;;5.70;85.70;;;;;;5032449;28;20086;-71
2022/11/26 04:41:57;;;;;;;15.13;5.77;;;5.70;85.70;;;;;;5031258;28;20077;-71
2022/11/26 04:44:26;;;;;;;9.82;5.45;;;5.70;85.70;;;;;;5032236;28;20293;-71
2022/11/26 04:46:53;;;;;;;10.57;5.70;;;5.70;85.80;;;;;;5032410;28;20046;-71
2022/11/26 04:49:20;;;;;;;12.95;6.07;;;5.70;85.80;;;;;;5030373;28;20082;-71
2022/11/26 04:51:47;;;;;;;17.23;6.78;;;5.70;85.80;;;;;;5032348;28;20162;-71
2022/11/26 04:54:14;;;;;;;12.80;6.30;;;5.70;86.00;;;;;;5032295;28;20057;-71
2022/11/26 04:56:41;;;;;;;15.02;5.55;;;5.70;86.00;;;;;;5030854;28;20266;-71
2022/11/26 04:59:08;;;;;;;10.50;5.13;;;5.60;86.00;;;;;;5029957;28;20522;-71
2022/11/26 05:01:36;;;;;;;11.27;5.00;;;5.60;85.90;;;;;;5030753;28;20133;-71
2022/11/26 05:04:04;;;;;;;10.57;4.88;;;5.60;85.80;;;;;;5030459;28;20136;-71
2022/11/26 05:06:31;;;;;;;10.60;5.10;;;5.60;85.80;;;;;;5032268;28;20121;-71
2022/11/26 05:08:58;;;;;;;9.80;5.30;;;5.60;85.80;;;;;;5030084;28;20706;-71
2022/11/26 05:11:25;;;;;;;12.63;5.95;;;5.50;85.80;;;;;;5030683;28;20050;-71
2022/11/26 05:13:52;;;;;;;14.85;5.40;;;5.50;85.90;;;;;;5031991;28;20054;-71
2022/11/26 05:16:19;;;;;;;14.43;5.50;;;5.50;85.90;;;;;;5045516;28;20046;-71
2022/11/26 05:18:47;;;;;;;11.23;5.67;;;5.50;86.00;;;;;;5030496;28;20518;-71
2022/11/26 05:21:14;;;;;;;11.48;5.80;;;5.50;86.10;;;;;;5030265;28;20333;-71
2022/11/26 05:23:41;;;;;;;12.02;5.72;;;5.50;86.10;;;;;;5031861;28;20196;-71
2022/11/26 05:26:08;;;;;;;12.50;5.55;;;5.50;86.10;;;;;;5031230;28;20053;-71
2022/11/26 05:28:36;;;;;;;11.48;5.28;;;5.50;86.20;;;;;;5030318;28;20487;-71
2022/11/26 05:31:03;;;;;;;10.70;5.40;;;5.50;86.20;;;;;;5030270;28;20141;-71
2022/11/26 05:33:32;;;;;;;9.23;4.55;;;5.50;86.20;;;;;;5030216;28;20264;-71
2022/11/26 05:36:00;;;;;;;12.13;5.13;;;5.50;86.20;;;;;;5046986;28;20049;-71
2022/11/26 05:38:28;;;;;;;13.88;5.50;;;5.50;86.20;;;;;;5041743;28;20077;-71
2022/11/26 05:40:55;;;;;;;11.45;5.63;;;5.50;86.10;;;;;;5030573;28;20053;-71
2022/11/26 05:43:22;;;;;;;10.13;5.23;;;5.40;86.10;;;;;;5046866;28;20136;-71
2022/11/26 05:45:49;;;;;;;9.52;5.18;;;5.40;86.20;;;;;;5030100;28;20249;-71
2022/11/26 05:48:17;;;;;;;13.50;5.45;;;5.40;86.20;;;;;;5031090;28;20055;-71
2022/11/26 05:50:43;;;;;;;9.55;4.68;;;5.40;86.20;;;;;;5030161;28;20823;-71
2022/11/26 05:53:12;;;;;;;11.98;5.13;;;5.30;86.20;;;;;;5013559;28;20077;-71
2022/11/26 05:55:39;;;;;;;11.97;5.70;;;5.30;86.20;;;;;;5031123;28;20117;-71
2022/11/26 05:58:08;;;;;;;12.68;5.65;;;5.30;86.20;;;;;;5029574;28;20320;-71
2022/11/26 06:00:35;;;;;;;13.95;6.10;;;5.30;86.20;;;;;;5045621;28;20060;-71
2022/11/26 06:03:02;;;;;;;15.50;6.50;;;5.30;86.30;;;;;;5046469;28;20523;-71
2022/11/26 06:05:30;;;;;;;10.77;5.68;;;5.30;86.40;;;;;;5030001;28;20142;-71
2022/11/26 06:07:57;;;;;;;12.80;5.47;;;5.30;86.40;;;;;;5029503;28;20065;-71
2022/11/26 06:10:25;;;;;;;12.52;5.75;;;5.30;86.50;;;;;;5031022;28;20385;-71
2022/11/26 06:12:52;;;;;;;15.88;6.15;;;5.30;86.60;;;;;;5031030;28;20050;-71
2022/11/26 06:15:19;;;;;;;14.05;6.07;;;5.30;86.50;;;;;;5030992;28;20048;-71
2022/11/26 06:17:46;;;;;;;11.25;6.18;;;5.30;86.60;;;;;;5029229;28;20050;-71
2022/11/26 06:20:14;;;;;;;13.73;5.80;;;5.30;86.60;;;;;;5029319;28;20050;-71
2022/11/26 06:22:42;;;;;;;11.93;6.15;;;5.30;86.60;;;;;;5034295;28;20361;-71
2022/11/26 06:25:12;;;;;;;11.00;5.63;;;5.30;86.70;;;;;;5029371;28;20058;-71
2022/11/26 06:27:41;;;;;;;12.35;5.72;;;5.30;86.80;;;;;;5029453;28;20725;-71
2022/11/26 06:30:10;;;;;;;14.88;6.15;;;5.30;86.70;;;;;;5031362;28;20125;-71
2022/11/26 06:32:37;;;;;;;11.83;5.60;;;5.30;86.90;;;;;;5029274;28;20061;-71
2022/11/26 06:35:05;;;;;;;15.77;6.43;;;5.30;86.90;;;;;;5033974;28;20249;-71
2022/11/26 06:37:32;;;;;;;13.50;5.80;;;5.30;86.90;;;;;;5028473;28;20045;-71
2022/11/26 06:39:59;;;;;;;13.50;6.50;;;5.30;86.90;;;;;;5029948;28;20083;-71
2022/11/26 06:42:26;;;;;;;15.73;6.53;;;5.30;87.00;;;;;;5010863;28;20048;-71
2022/11/26 06:44:55;;;;;;;13.37;6.07;;;5.30;87.00;;;;;;5028894;28;20514;-71
2022/11/26 06:47:22;;;;;;;13.05;6.43;;;5.30;87.00;;;;;;5028999;28;20288;-71
2022/11/26 06:49:49;;;;;;;12.88;6.43;;;5.30;87.10;;;;;;5029938;28;20058;-71
2022/11/26 06:52:16;;;;;;;10.63;5.90;;;5.30;87.00;;;;;;5028835;28;20050;-71
2022/11/26 06:54:43;;;;;;;12.90;6.13;;;5.30;87.10;;;;;;5028811;28;20528;-71
2022/11/26 06:57:10;;;;;;;11.43;5.97;;;5.30;87.20;;;;;;5025376;28;20065;-71
2022/11/26 06:59:37;;;;;;;16.02;6.65;;;5.30;87.10;;;;;;5009422;28;20250;-71
2022/11/26 07:02:05;;;;;;;14.02;6.72;;;5.30;87.00;;;;;;5027422;28;20475;-71
2022/11/26 07:04:33;;;;;;;15.50;6.28;;;5.30;87.10;;;;;;5029713;28;20058;-71
2022/11/26 07:07:00;;;;;;;14.77;6.35;;;5.30;87.10;;;;;;5026682;28;20050;-71
2022/11/26 07:09:27;;;;;;;12.77;6.70;;;5.30;87.20;;;;;;5025981;28;20835;-71
2022/11/26 07:11:54;;;;;;;16.42;6.28;;;5.30;87.20;;;;;;5027583;28;20404;-71
2022/11/26 07:14:21;;;;;;;13.15;6.50;;;5.30;87.20;;;;;;5035316;28;20547;-71
2022/11/26 07:16:48;;;;;;;14.48;6.68;;;5.30;87.20;;;;;;5025737;28;20050;-71
2022/11/26 07:19:17;;;;;;;10.60;5.90;;;5.30;87.10;;;;;;5022440;28;20060;-71
2022/11/26 07:21:44;;;;;;;15.73;6.20;;;5.30;87.10;;;;;;5021779;28;20096;-71
2022/11/26 07:24:11;;;;;;;13.48;6.28;;;5.30;87.00;;;;;;5032657;28;20767;-71
2022/11/26 07:26:38;;;;;;;15.75;6.50;;;5.30;87.00;;;;;;5020492;28;20058;-71
2022/11/26 07:29:05;;;;;;;12.18;5.80;;;5.30;87.00;;;;;;5033836;28;20502;-71
2022/11/26 07:31:32;;;;;;;14.23;6.70;;;5.30;87.00;;;;;;5022544;28;20966;-71
2022/11/26 07:33:59;;;;;;;12.70;6.30;;;5.30;87.00;;;;;;5035209;28;21035;-71
2022/11/26 07:36:30;;;;;;;14.73;6.07;;;5.30;87.00;;;;;;5028045;28;20375;-71
2022/11/26 07:38:59;;;;;;;12.45;6.07;;;5.30;87.00;;;;;;5032950;28;20056;-71
2022/11/26 07:41:27;;;;;;;12.73;6.10;;;5.30;87.00;;;;;;5036176;28;20611;-71
2022/11/26 07:43:54;;;;;;;14.20;6.35;;;5.30;87.00;;;;;;5019381;28;20046;-71
2022/11/26 07:46:24;;;;;;;13.23;5.90;;;5.30;87.10;;;;;;5019347;28;20487;-71
2022/11/26 07:48:51;;;;;;;13.82;6.00;;;5.30;87.10;;;;;;5022620;28;20341;-71
2022/11/26 07:51:20;;;;;;;15.40;6.15;;;5.30;87.10;;;;;;5042465;28;20435;-71
2022/11/26 07:53:49;;;;;;;15.98;6.35;;;5.30;87.10;;;;;;5030890;28;20054;-71
2022/11/26 07:56:17;;;;;;;18.08;7.45;;;5.30;87.10;;;;;;5032277;28;20057;-71
2022/11/26 07:58:44;;;;;;;16.07;6.93;;;5.30;87.20;;;;;;5031172;28;20058;-71
2022/11/26 08:01:13;;;;;;;14.18;6.80;;;5.30;87.20;;;;;;5029622;28;20361;-71
2022/11/26 08:03:42;;;;;;;18.80;6.78;;;5.40;87.20;;;;;;5033009;28;20046;-71
2022/11/26 08:06:11;;;;;;;20.17;6.85;;;5.40;87.20;;;;;;5033122;28;20057;-71
2022/11/26 08:08:39;;;;;;;15.25;6.40;;;5.40;87.20;;;;;;5030784;28;20145;-71
2022/11/26 08:11:14;;;;;;;13.77;6.77;;;5.40;87.20;;;;;;5029589;28;20057;-71
2022/11/26 08:13:41;;;;;;;16.17;7.07;;;5.50;87.30;;;;;;5032364;28;20335;-71
2022/11/26 08:16:08;;;;;;;16.48;7.25;;;5.50;87.30;;;;;;5032012;28;20572;-71
2022/11/26 08:18:36;;;;;;;14.93;6.68;;;5.50;87.50;;;;;;5030373;28;20061;-71
2022/11/26 08:21:03;;;;;;;16.45;7.22;;;5.50;87.40;;;;;;5030812;28;21020;-71
2022/11/26 08:23:31;;;;;;;15.77;6.93;;;5.50;87.60;;;;;;5045543;28;20038;-71
2022/11/26 08:29:02;;;;;;;14.15;7.20;;;5.50;87.70;;;;;;5025187;28;20137;-72
2022/11/26 08:31:29;;;;;;;15.35;7.20;;;5.50;87.70;;;;;;5029102;28;20713;-71
2022/11/26 08:33:56;;;;;;;16.98;6.75;;;5.50;87.90;;;;;;5028142;28;20044;-71
2022/11/26 08:36:23;;;;;;;18.10;6.57;;;5.50;87.90;;;;;;5030545;28;20060;-71
2022/11/26 08:38:51;;;;;;;16.20;6.13;;;5.60;87.90;;;;;;5030290;28;20277;-70
2022/11/26 08:41:18;;;;;;;15.45;6.50;;;5.60;88.10;;;;;;5029722;28;20116;-71
2022/11/26 08:43:45;;;;;;;13.90;6.35;;;5.60;88.10;;;;;;5009341;28;20134;-70
2022/11/26 08:46:13;;;;;;;14.27;6.53;;;5.60;88.30;;;;;;5021692;28;20054;-71
2022/11/26 08:48:41;;;;;;;16.97;7.10;;;5.60;88.20;;;;;;5034522;28;20112;-71
2022/11/26 08:51:11;;;;;;;18.42;6.95;;;5.70;88.20;;;;;;5029978;28;20257;-70
2022/11/26 08:53:39;;;;;;;13.88;6.93;;;5.70;88.30;;;;;;5031031;28;20116;-70
2022/11/26 08:56:07;;;;;;;19.17;7.70;;;5.70;88.50;;;;;;5030025;28;20053;-70
2022/11/26 08:58:36;;;;;;;18.02;8.10;;;5.80;88.70;;;;;;5025378;28;20060;-70
2022/11/26 09:01:08;;;;;;;19.43;9.13;;;5.80;88.80;;;;;;5027411;28;20144;-71
2022/11/26 09:03:36;;;;;;;16.98;7.35;;;5.80;88.90;;;;;;5025294;28;20261;-70
2022/11/26 09:06:05;;;;;;;24.20;9.98;;;5.90;88.70;;;;;;5030382;28;20046;-70
2022/11/26 09:08:43;;;;;;;19.88;8.93;;;5.90;88.80;;;;;;5027272;28;20042;-71
2022/11/26 09:11:10;;;;;;;19.08;9.90;;;5.90;88.80;;;;;;5027491;28;20162;-71
2022/11/26 09:13:37;;;;;;;23.50;10.40;;;6.00;88.90;;;;;;5021742;28;20046;-71
2022/11/26 09:16:05;;;;;;;25.45;11.00;;;6.00;88.90;;;;;;5020953;28;20291;-71
2022/11/26 09:18:32;;;;;;;26.65;11.10;;;6.00;88.90;;;;;;5021642;28;20069;-70
2022/11/26 09:21:03;;;;;;;23.08;11.38;;;6.00;88.90;;;;;;5036962;28;20076;-70
2022/11/26 09:23:30;;;;;;;22.35;11.50;;;6.10;89.00;;;;;;5028231;28;20046;-70
2022/11/26 09:25:58;;;;;;;22.33;10.70;;;6.10;89.00;;;;;;5029552;28;20557;-70
2022/11/26 09:28:25;;;;;;;21.52;10.82;;;6.10;89.10;;;;;;5010299;28;20297;-70
2022/11/26 09:30:57;;;;;;;20.48;10.52;;;6.20;89.10;;;;;;5035379;28;20050;-71
2022/11/26 09:33:24;;;;;;;21.80;11.32;;;6.20;89.00;;;;;;5025544;28;20133;-71
2022/11/26 09:35:51;;;;;;;20.80;10.30;;;6.20;89.10;;;;;;5029781;28;20050;-71
2022/11/26 09:38:20;;;;;;;21.87;11.67;;;6.20;89.10;;;;;;5024429;28;20062;-71
2022/11/26 09:40:54;;;;;;;22.98;10.32;;;6.20;89.00;;;;;;5027872;28;20301;-70
2022/11/26 09:43:29;;;;;;;24.15;10.80;;;6.30;89.10;;;;;;5013217;28;20069;-70
2022/11/26 09:45:59;;;;;;;21.42;9.75;;;6.30;89.10;;;;;;5019943;28;20128;-70
2022/11/26 09:48:32;;;;;;;25.85;10.77;;;6.30;89.20;;;;;;5023404;28;20108;-70
2022/11/26 09:51:07;;;;;;;23.07;11.17;;;6.40;89.20;;;;;;5030662;28;20054;-71
2022/11/26 09:53:41;;;;;;;24.95;10.80;;;6.40;89.30;;;;;;5012378;28;20743;-70
2022/11/26 09:56:14;;;;;;;29.17;11.30;;;6.40;89.40;;;;;;5016244;28;20054;-70
2022/11/26 09:58:48;;;;;;;25.45;12.02;;;6.50;89.40;;;;;;5020116;28;20062;-70
2022/11/26 10:01:20;;;;;;;23.13;11.38;;;6.50;89.40;;;;;;5028093;28;20058;-70
2022/11/26 10:03:47;;;;;;;20.63;10.50;;;6.50;89.50;;;;;;5029820;28;20081;-70
2022/11/26 10:06:30;;;;;;;22.10;11.70;;;6.50;89.40;;;;;;5029952;28;20279;-70
2022/11/26 10:09:12;;;;;;;25.20;10.82;;;6.60;89.50;;;;;;5010242;28;20150;-71
2022/11/26 10:11:47;;;;;;;21.52;11.20;;;6.60;89.40;;;;;;5029113;28;21059;-71
2022/11/26 10:14:30;;;;;;;22.65;10.70;;;6.60;89.40;;;;;;5026026;28;20053;-71
2022/11/26 10:17:10;;;;;;;23.03;11.70;;;6.70;89.50;;;;;;5026829;28;20953;-71
2022/11/26 10:19:46;;;;;;;25.88;11.05;;;6.70;89.50;;;;;;5025433;28;20348;-70
2022/11/26 10:22:22;;;;;;;22.10;11.05;;;6.70;89.50;;;;;;5027764;28;20507;-71
2022/11/26 10:24:51;;;;;;;25.33;12.88;;;6.70;89.40;;;;;;5028083;28;20046;-70
2022/11/26 10:27:19;;;;;;;27.17;12.52;;;6.80;89.40;;;;;;5027834;28;20069;-71
2022/11/26 10:29:51;;;;;;;25.40;11.53;;;6.80;89.50;;;;;;5027914;28;20078;-71
2022/11/26 10:32:25;;;;;;;24.33;12.32;;;6.80;89.50;;;;;;5042766;28;20784;-71
2022/11/26 10:34:54;;;;;;;27.27;12.15;;;6.90;89.60;;;;;;5022104;28;20055;-71
2022/11/26 10:37:23;;;;;;;28.27;13.25;;;6.90;89.50;;;;;;5029317;28;20129;-70
2022/11/26 10:39:56;;;;;;;26.92;13.05;;;6.90;89.50;;;;;;5027876;28;20045;-71
2022/11/26 10:42:24;;;;;;;27.33;12.50;;;6.90;89.50;;;;;;5028527;28;20136;-71
2022/11/26 10:44:52;;;;;;;30.65;14.98;;;7.00;89.60;;;;;;5023384;28;20376;-70
2022/11/26 10:47:24;;;;;;;26.58;13.15;;;7.00;89.50;;;;;;5022063;28;20051;-71
2022/11/26 10:49:52;;;;;;;26.85;12.95;;;7.00;89.60;;;;;;5035600;28;20576;-70
2022/11/26 10:52:22;;;;;;;31.02;14.45;;;7.00;89.60;;;;;;5023269;28;20058;-71
2022/11/26 10:55:25;;;;;;;31.23;14.23;;;7.00;89.60;;;;;;5020233;28;21080;-70
2022/11/26 10:57:57;;;;;;;30.20;13.43;;;7.00;89.70;;;;;;5019036;28;20369;-71
2022/11/26 11:00:34;;;;;;;35.80;14.60;;;7.10;89.60;;;;;;5024276;28;20109;-70
2022/11/26 11:03:03;;;;;;;34.90;14.70;;;7.10;89.60;;;;;;5029362;28;20054;-71
2022/11/26 11:05:31;;;;;;;31.52;14.65;;;7.20;89.70;;;;;;5026654;28;20784;-71
2022/11/26 11:07:58;;;;;;;33.80;15.83;;;7.20;89.70;;;;;;5028017;28;20125;-71
2022/11/26 11:10:26;;;;;;;28.05;14.35;;;7.20;89.60;;;;;;5026685;28;20301;-71
2022/11/26 11:13:09;;;;;;;37.25;15.30;;;7.20;89.70;;;;;;5027651;28;20144;-71
2022/11/26 11:15:39;;;;;;;32.80;15.75;;;7.20;89.70;;;;;;5010342;28;20050;-71
2022/11/26 11:18:13;;;;;;;37.78;15.30;;;7.30;89.70;;;;;;5010622;28;20046;-71
2022/11/26 11:20:42;;;;;;;41.90;17.13;;;7.40;89.80;;;;;;5027750;28;20049;-71
2022/11/26 11:23:21;;;;;;;39.08;15.50;;;7.40;89.90;;;;;;5027019;28;20249;-71
2022/11/26 11:25:59;;;;;;;34.88;15.60;;;7.40;89.90;;;;;;5031899;28;20532;-71
2022/11/26 11:28:29;;;;;;;34.25;14.73;;;7.50;90.00;;;;;;5032912;28;20129;-70
2022/11/26 11:31:01;;;;;;;33.53;14.55;;;7.50;90.00;;;;;;5031363;28;20116;-70
2022/11/26 11:34:11;;;;;;;31.50;13.07;;;7.50;90.10;;;;;;5030294;28;20054;-70
2022/11/26 11:36:38;;;;;;;32.67;14.77;;;7.60;90.10;;;;;;5011957;28;20282;-70
2022/11/26 11:39:05;;;;;;;34.92;14.82;;;7.60;90.00;;;;;;5019846;28;20054;-70
2022/11/26 11:41:36;;;;;;;39.83;14.55;;;7.60;90.00;;;;;;5028598;28;20133;-69
2022/11/26 11:44:16;;;;;;;30.70;14.20;;;7.70;90.10;;;;;;5010402;28;20160;-72
2022/11/26 11:47:20;;;;;;;28.20;12.97;;;7.80;90.00;;;;;;5012663;28;20050;-71
2022/11/26 11:50:11;;;;;;;31.65;14.20;;;7.80;90.10;;;;;;5020912;28;20724;-72
2022/11/26 11:52:46;;;;;;;36.30;13.57;;;7.80;90.10;;;;;;5029318;28;20046;-72
2022/11/26 11:55:21;;;;;;;32.10;13.05;;;7.80;90.10;;;;;;5031151;28;20232;-68
2022/11/26 11:58:11;;;;;;;28.50;12.23;;;7.90;90.10;;;;;;5029445;28;20185;-69
2022/11/26 12:00:52;;;;;;;27.23;13.53;;;8.00;90.20;;;;;;5024721;28;20056;-69
2022/11/26 12:03:44;;;;;;;30.88;13.00;;;8.00;90.30;;;;;;5029807;28;20316;-69
2022/11/26 12:06:22;;;;;;;28.15;11.75;;;8.00;90.30;;;;;;5010691;28;20050;-68
2022/11/26 12:09:02;;;;;;;34.45;12.93;;;8.10;90.50;;;;;;5029980;28;20050;-68
2022/11/26 12:11:38;;;;;;;30.23;12.38;;;8.10;90.40;;;;;;5014288;28;20052;-69
2022/11/26 12:14:12;;;;;;;29.70;12.03;;;8.10;90.30;;;;;;5030414;28;20365;-69
2022/11/26 12:16:44;;;;;;;28.20;12.18;;;8.20;90.20;;;;;;5029403;28;20254;-69
2022/11/26 12:19:18;;;;;;;27.48;12.25;;;8.20;90.20;;;;;;5032073;28;20539;-69
2022/11/26 12:21:54;;;;;;;30.85;12.55;;;8.20;90.20;;;;;;5026188;28;20137;-69
2022/11/26 12:24:31;;;;;;;27.65;11.85;;;8.30;90.20;;;;;;5026395;28;20145;-69
2022/11/26 12:27:04;;;;;;;27.23;11.07;;;8.30;90.30;;;;;;5020546;28;20050;-69
2022/11/26 12:29:40;;;;;;;29.98;11.50;;;8.30;90.20;;;;;;5029247;28;20256;-69
2022/11/26 12:32:12;;;;;;;29.45;11.18;;;8.40;90.20;;;;;;5029287;28;20073;-69
2022/11/26 12:34:45;;;;;;;27.00;10.65;;;8.40;90.10;;;;;;5029250;28;20519;-69
2022/11/26 12:37:19;;;;;;;27.55;10.73;;;8.40;90.20;;;;;;5030486;28;20054;-69
2022/11/26 12:39:51;;;;;;;23.80;10.57;;;8.40;90.10;;;;;;5030059;28;20054;-69
2022/11/26 12:42:26;;;;;;;25.95;10.10;;;8.50;90.10;;;;;;5030939;28;20281;-69
2022/11/26 12:44:56;;;;;;;26.13;10.13;;;8.50;90.00;;;;;;5034211;28;20050;-69
2022/11/26 12:47:30;;;;;;;23.58;10.38;;;8.50;90.00;;;;;;5032359;28;20058;-69
2022/11/26 12:50:07;;;;;;;24.25;10.50;;;8.50;90.00;;;;;;5030254;28;20045;-69
2022/11/26 12:52:41;;;;;;;23.87;11.43;;;8.60;90.00;;;;;;5030480;28;20077;-69
2022/11/26 12:55:17;;;;;;;25.10;11.05;;;8.60;89.90;;;;;;5032358;28;20255;-69
2022/11/26 12:57:49;;;;;;;30.80;12.25;;;8.60;89.90;;;;;;5030444;28;20515;-69
2022/11/26 13:00:20;;;;;;;22.40;10.20;;;8.60;89.80;;;;;;5031581;28;20136;-69
2022/11/26 13:02:52;;;;;;;31.40;12.77;;;8.60;89.80;;;;;;5031860;28;20050;-69
2022/11/26 13:05:25;;;;;;;27.97;11.10;;;8.60;89.70;;;;;;5035545;28;20176;-69